CHH730 EBBR-ZBAA
Flight info
| Callsign | CHH730 |
|---|---|
| Flight time | N/A |
| Altitude | 37000 |
| Route | SOPOK3G SOPOK Y863 ROPUV L607 EMGOD DCT BOMBI DCT TENLO DCT DEXIT DCT MAREG DCT ALAMU DCT BUDOP DCT UDROS UM859 KARDE UN644 ROLIN N644 LAGAS M747 SUBUT T916 LEYLA/N0488F390 N161 GASBI/K0906F390 N161 DZG DCT AMASO DCT SARIN/K0904S1190 A368 FKG W188 ESGIV/K0902S1250 W188 GOVSA W66 DKO W69 GUVBA GUVBA4E |
| Aircraft | B789/H-SDE1E2E3FGHIJ2J3J4J5M1RWXY/LB1D1 |
Departure
| Time | N/A |
|---|---|
| Airport | Brussels Airport (EBBR) |
Arrival
| Time | 2026-05-04 15:40 |
|---|---|
| Airport | Beijing Capital International Airport (ZBAA) |
| Time | Latitude | Longitude | Altitude | Speed | Heading |
|---|---|---|---|---|---|
| 2026-05-04 14:29 | 40.95685 | 104.84402 | 42796 ft | 564 kts | 109° |
| 2026-05-04 14:29 | 40.92841 | 104.94080 | 42801 ft | 565 kts | 109° |
| 2026-05-04 14:30 | 40.89519 | 105.05342 | 42788 ft | 564 kts | 109° |
| 2026-05-04 14:31 | 40.85703 | 105.18220 | 42788 ft | 562 kts | 110° |
| 2026-05-04 14:32 | 40.79965 | 105.37461 | 42810 ft | 564 kts | 110° |
| 2026-05-04 14:32 | 40.77097 | 105.47029 | 42817 ft | 565 kts | 110° |
| 2026-05-04 14:33 | 40.74198 | 105.56665 | 42821 ft | 566 kts | 110° |
| 2026-05-04 14:33 | 40.71289 | 105.66294 | 42825 ft | 564 kts | 110° |
| 2026-05-04 14:34 | 40.68381 | 105.75891 | 42813 ft | 562 kts | 110° |
| 2026-05-04 14:34 | 40.65479 | 105.85433 | 42823 ft | 562 kts | 110° |
| 2026-05-04 14:35 | 40.62561 | 105.94990 | 42819 ft | 563 kts | 110° |
| 2026-05-04 14:35 | 40.59627 | 106.04568 | 42826 ft | 563 kts | 110° |
| 2026-05-04 14:36 | 40.56696 | 106.14102 | 42820 ft | 562 kts | 110° |
| 2026-05-04 14:36 | 40.53775 | 106.23569 | 42822 ft | 563 kts | 110° |
| 2026-05-04 14:37 | 40.50827 | 106.33089 | 42818 ft | 562 kts | 110° |
| 2026-05-04 14:37 | 40.47868 | 106.42614 | 42819 ft | 563 kts | 110° |
| 2026-05-04 14:38 | 40.44900 | 106.52133 | 42819 ft | 563 kts | 110° |
| 2026-05-04 14:38 | 40.41923 | 106.61647 | 42821 ft | 564 kts | 110° |
| 2026-05-04 14:39 | 40.38932 | 106.71170 | 42829 ft | 564 kts | 110° |
| 2026-05-04 14:39 | 40.35946 | 106.80646 | 42817 ft | 561 kts | 111° |
| 2026-05-04 14:40 | 40.31967 | 106.94942 | 42821 ft | 555 kts | 97° |
| 2026-05-04 14:40 | 40.31601 | 107.00011 | 42821 ft | 550 kts | 86° |
| 2026-05-04 14:40 | 40.31898 | 107.04906 | 42833 ft | 544 kts | 76° |
| 2026-05-04 14:41 | 40.33277 | 107.14661 | 42835 ft | 545 kts | 76° |
| 2026-05-04 14:42 | 40.35639 | 107.34301 | 42841 ft | 544 kts | 76° |
| 2026-05-04 14:42 | 40.36811 | 107.44101 | 42828 ft | 544 kts | 77° |
| 2026-05-04 14:43 | 40.37991 | 107.53882 | 42830 ft | 542 kts | 76° |
| 2026-05-04 14:43 | 40.39166 | 107.63647 | 42831 ft | 542 kts | 77° |
| 2026-05-04 14:44 | 40.40321 | 107.73439 | 42828 ft | 545 kts | 77° |
| 2026-05-04 14:44 | 40.41487 | 107.83270 | 42831 ft | 544 kts | 77° |
| 2026-05-04 14:45 | 40.42623 | 107.93029 | 42833 ft | 543 kts | 77° |
| 2026-05-04 14:45 | 40.43767 | 108.02835 | 42826 ft | 544 kts | 77° |
| 2026-05-04 14:46 | 40.44895 | 108.12656 | 42833 ft | 544 kts | 77° |
| 2026-05-04 14:46 | 40.46018 | 108.22466 | 42831 ft | 544 kts | 77° |
| 2026-05-04 14:47 | 40.47133 | 108.32297 | 42822 ft | 544 kts | 77° |
| 2026-05-04 14:47 | 40.48242 | 108.42143 | 42831 ft | 545 kts | 77° |
| 2026-05-04 14:48 | 40.49341 | 108.51984 | 42832 ft | 545 kts | 77° |
| 2026-05-04 14:48 | 40.50424 | 108.61761 | 42830 ft | 544 kts | 77° |
| 2026-05-04 14:49 | 40.51507 | 108.71611 | 42837 ft | 544 kts | 77° |
| 2026-05-04 14:49 | 40.52579 | 108.81445 | 42843 ft | 543 kts | 77° |
| 2026-05-04 14:50 | 40.53640 | 108.91249 | 42843 ft | 541 kts | 77° |
| 2026-05-04 14:50 | 40.54695 | 109.01082 | 42850 ft | 543 kts | 78° |
| 2026-05-04 14:51 | 40.55743 | 109.10930 | 42856 ft | 545 kts | 78° |
| 2026-05-04 14:51 | 40.56783 | 109.20793 | 42858 ft | 543 kts | 78° |
| 2026-05-04 14:52 | 40.57815 | 109.30646 | 42860 ft | 543 kts | 78° |
| 2026-05-04 14:52 | 40.58832 | 109.40451 | 42870 ft | 544 kts | 78° |
| 2026-05-04 14:53 | 40.59846 | 109.50312 | 42867 ft | 544 kts | 78° |
| 2026-05-04 14:53 | 40.60854 | 109.60183 | 42879 ft | 545 kts | 78° |
| 2026-05-04 14:54 | 40.61853 | 109.70067 | 42884 ft | 545 kts | 78° |
| 2026-05-04 14:54 | 40.62846 | 109.79972 | 42914 ft | 545 kts | 78° |
| 2026-05-04 14:55 | 40.63828 | 109.89862 | 42884 ft | 544 kts | 78° |
| 2026-05-04 14:55 | 40.64681 | 109.99742 | 42875 ft | 546 kts | 85° |
| 2026-05-04 14:56 | 40.64614 | 110.09764 | 42906 ft | 549 kts | 87° |
| 2026-05-04 14:56 | 40.64571 | 110.19831 | 42908 ft | 549 kts | 86° |
| 2026-05-04 14:57 | 40.64515 | 110.29872 | 42913 ft | 549 kts | 87° |
| 2026-05-04 14:57 | 40.64440 | 110.39931 | 42920 ft | 549 kts | 86° |
| 2026-05-04 14:58 | 40.64372 | 110.50003 | 42910 ft | 550 kts | 87° |
| 2026-05-04 14:58 | 40.64279 | 110.60056 | 42927 ft | 549 kts | 86° |
| 2026-05-04 14:59 | 40.64191 | 110.70098 | 42929 ft | 547 kts | 87° |
| 2026-05-04 15:00 | 40.64032 | 110.85084 | 42931 ft | 548 kts | 87° |
| 2026-05-04 15:00 | 40.63917 | 110.95120 | 42932 ft | 548 kts | 87° |
| 2026-05-04 15:01 | 40.63728 | 111.10177 | 42935 ft | 548 kts | 87° |
| 2026-05-04 15:01 | 40.63591 | 111.20147 | 42939 ft | 547 kts | 87° |
| 2026-05-04 15:02 | 40.63445 | 111.30136 | 42938 ft | 545 kts | 87° |
| 2026-05-04 15:02 | 40.63292 | 111.40127 | 42938 ft | 546 kts | 87° |
| 2026-05-04 15:03 | 40.63129 | 111.50145 | 42945 ft | 548 kts | 88° |
| 2026-05-04 15:03 | 40.62957 | 111.60182 | 42956 ft | 549 kts | 88° |
| 2026-05-04 15:04 | 40.62776 | 111.70229 | 42957 ft | 547 kts | 88° |
| 2026-05-04 15:04 | 40.62589 | 111.80168 | 42974 ft | 546 kts | 88° |
| 2026-05-04 15:05 | 40.62391 | 111.90211 | 42950 ft | 545 kts | 88° |
| 2026-05-04 15:05 | 40.62188 | 112.00120 | 42954 ft | 546 kts | 88° |
| 2026-05-04 15:06 | 40.61972 | 112.10143 | 42968 ft | 548 kts | 88° |
| 2026-05-04 15:07 | 40.61633 | 112.25201 | 42973 ft | 549 kts | 88° |
| 2026-05-04 15:07 | 40.61396 | 112.35228 | 42968 ft | 547 kts | 88° |
| 2026-05-04 15:08 | 40.61152 | 112.45229 | 42961 ft | 546 kts | 88° |
| 2026-05-04 15:08 | 40.60696 | 112.55218 | 42965 ft | 548 kts | 91° |
| 2026-05-04 15:09 | 40.60153 | 112.65224 | 42964 ft | 547 kts | 91° |
| 2026-05-04 15:09 | 40.59566 | 112.75211 | 42959 ft | 547 kts | 91° |
| 2026-05-04 15:10 | 40.58547 | 112.90132 | 42964 ft | 545 kts | 92° |
| 2026-05-04 15:11 | 40.57551 | 113.04992 | 42966 ft | 546 kts | 92° |
| 2026-05-04 15:11 | 40.56861 | 113.14922 | 42958 ft | 544 kts | 92° |
| 2026-05-04 15:12 | 40.56172 | 113.24844 | 42960 ft | 544 kts | 92° |
| 2026-05-04 15:12 | 40.55467 | 113.34749 | 42961 ft | 544 kts | 92° |
| 2026-05-04 15:13 | 40.54760 | 113.44670 | 42968 ft | 546 kts | 92° |
| 2026-05-04 15:13 | 40.54036 | 113.54608 | 42955 ft | 545 kts | 92° |
| 2026-05-04 15:14 | 40.53310 | 113.64524 | 42957 ft | 545 kts | 93° |
| 2026-05-04 15:14 | 40.52578 | 113.74372 | 42947 ft | 545 kts | 92° |
| 2026-05-04 15:15 | 40.51835 | 113.84273 | 42948 ft | 543 kts | 93° |
| 2026-05-04 15:15 | 40.51084 | 113.94150 | 42943 ft | 543 kts | 93° |
| 2026-05-04 15:16 | 40.50507 | 114.03909 | 41873 ft | 527 kts | 90° |
| 2026-05-04 15:16 | 40.50313 | 114.08675 | 41430 ft | 520 kts | 90° |
| 2026-05-04 15:16 | 40.49892 | 114.18151 | 40088 ft | 516 kts | 90° |
| 2026-05-04 15:17 | 40.49697 | 114.22837 | 39470 ft | 512 kts | 90° |
| 2026-05-04 15:17 | 40.49294 | 114.32118 | 38223 ft | 505 kts | 90° |
| 2026-05-04 15:17 | 40.49087 | 114.36702 | 37490 ft | 500 kts | 90° |
| 2026-05-04 15:18 | 40.48885 | 114.41244 | 36808 ft | 496 kts | 89° |
| 2026-05-04 15:18 | 40.48685 | 114.45747 | 36113 ft | 493 kts | 89° |
| 2026-05-04 15:18 | 40.48552 | 114.48721 | 35674 ft | 492 kts | 89° |
| 2026-05-04 15:19 | 40.48070 | 114.59197 | 34205 ft | 496 kts | 89° |
| 2026-05-04 15:19 | 40.47927 | 114.62255 | 33782 ft | 495 kts | 89° |
| 2026-05-04 15:19 | 40.47434 | 114.72767 | 32175 ft | 496 kts | 89° |
| 2026-05-04 15:20 | 40.47288 | 114.75818 | 31721 ft | 494 kts | 89° |
| 2026-05-04 15:20 | 40.47070 | 114.80307 | 31035 ft | 490 kts | 89° |
| 2026-05-04 15:20 | 40.46857 | 114.84702 | 30373 ft | 486 kts | 89° |
| 2026-05-04 15:20 | 40.46643 | 114.89099 | 29670 ft | 480 kts | 89° |
| 2026-05-04 15:21 | 40.46430 | 114.93452 | 28896 ft | 475 kts | 90° |
| 2026-05-04 15:21 | 40.46216 | 114.97755 | 28145 ft | 470 kts | 90° |
| 2026-05-04 15:21 | 40.45792 | 115.06250 | 26706 ft | 462 kts | 90° |
| 2026-05-04 15:22 | 40.45579 | 115.10439 | 26005 ft | 458 kts | 91° |
| 2026-05-04 15:22 | 40.45367 | 115.14595 | 25324 ft | 454 kts | 91° |
| 2026-05-04 15:22 | 40.44946 | 115.22780 | 24007 ft | 445 kts | 91° |
| 2026-05-04 15:23 | 40.44735 | 115.26821 | 23371 ft | 441 kts | 91° |
| 2026-05-04 15:23 | 40.44525 | 115.30827 | 22603 ft | 438 kts | 92° |
| 2026-05-04 15:23 | 40.44315 | 115.34806 | 21865 ft | 435 kts | 92° |
| 2026-05-04 15:23 | 40.44106 | 115.38744 | 21144 ft | 431 kts | 93° |
| 2026-05-04 15:24 | 40.43689 | 115.46507 | 19753 ft | 422 kts | 93° |
| 2026-05-04 15:24 | 40.43277 | 115.54113 | 18420 ft | 414 kts | 94° |
| 2026-05-04 15:25 | 40.43098 | 115.57861 | 17721 ft | 410 kts | 93° |
| 2026-05-04 15:25 | 40.42945 | 115.61588 | 16991 ft | 406 kts | 92° |
| 2026-05-04 15:25 | 40.42784 | 115.65273 | 16276 ft | 403 kts | 93° |
| 2026-05-04 15:26 | 40.42431 | 115.72546 | 14887 ft | 396 kts | 92° |
| 2026-05-04 15:26 | 40.42264 | 115.76145 | 14214 ft | 394 kts | 92° |
| 2026-05-04 15:26 | 40.41931 | 115.83240 | 12850 ft | 388 kts | 92° |
| 2026-05-04 15:27 | 40.41759 | 115.86782 | 12200 ft | 380 kts | 93° |
| 2026-05-04 15:27 | 40.41432 | 115.93547 | 10973 ft | 369 kts | 93° |
| 2026-05-04 15:28 | 40.41107 | 116.00169 | 9759 ft | 359 kts | 93° |
| 2026-05-04 15:28 | 40.40947 | 116.03413 | 9113 ft | 354 kts | 94° |
| 2026-05-04 15:28 | 40.40629 | 116.09799 | 7857 ft | 347 kts | 94° |
| 2026-05-04 15:29 | 40.40470 | 116.12944 | 7257 ft | 344 kts | 94° |
| 2026-05-04 15:30 | 40.40406 | 116.24511 | 7000 ft | 303 kts | 90° |
| 2026-05-04 15:30 | 40.40498 | 116.32798 | 7002 ft | 303 kts | 90° |
| 2026-05-04 15:31 | 40.40538 | 116.38301 | 7024 ft | 300 kts | 90° |
| 2026-05-04 15:31 | 40.40563 | 116.41063 | 6926 ft | 305 kts | 90° |
| 2026-05-04 15:32 | 40.40612 | 116.49294 | 6026 ft | 299 kts | 92° |
| 2026-05-04 15:32 | 40.38844 | 116.53904 | 4570 ft | 271 kts | 145° |
| 2026-05-04 15:33 | 40.35742 | 116.55302 | 4000 ft | 213 kts | 175° |
| 2026-05-04 15:34 | 40.31792 | 116.55916 | 3885 ft | 176 kts | 175° |
| 2026-05-04 15:34 | 40.30590 | 116.56106 | 3882 ft | 174 kts | 175° |
| 2026-05-04 15:34 | 40.28200 | 116.56479 | 3842 ft | 174 kts | 172° |
| 2026-05-04 15:35 | 40.25827 | 116.56839 | 3405 ft | 163 kts | 180° |
| 2026-05-04 15:35 | 40.24740 | 116.57019 | 3185 ft | 152 kts | 181° |
| 2026-05-04 15:35 | 40.23792 | 116.57170 | 3015 ft | 148 kts | 181° |
| 2026-05-04 15:36 | 40.22410 | 116.57387 | 2754 ft | 147 kts | 181° |
| 2026-05-04 15:36 | 40.21392 | 116.57546 | 2557 ft | 147 kts | 181° |
| 2026-05-04 15:36 | 40.20381 | 116.57705 | 2367 ft | 146 kts | 181° |
| 2026-05-04 15:37 | 40.19372 | 116.57862 | 2163 ft | 146 kts | 181° |
| 2026-05-04 15:37 | 40.18817 | 116.57950 | 2061 ft | 141 kts | 181° |
| 2026-05-04 15:37 | 40.17973 | 116.58082 | 1896 ft | 129 kts | 181° |
| 2026-05-04 15:37 | 40.17104 | 116.58226 | 1772 ft | 126 kts | 184° |
| 2026-05-04 15:38 | 40.16222 | 116.58372 | 1654 ft | 125 kts | 183° |
| 2026-05-04 15:38 | 40.15332 | 116.58457 | 1523 ft | 130 kts | 180° |
| 2026-05-04 15:38 | 40.14444 | 116.58626 | 1379 ft | 133 kts | 178° |
| 2026-05-04 15:38 | 40.13514 | 116.58771 | 1116 ft | 135 kts | 179° |
| 2026-05-04 15:39 | 40.12578 | 116.58919 | 883 ft | 141 kts | 173° |
| 2026-05-04 15:39 | 40.11602 | 116.59073 | 715 ft | 140 kts | 173° |
| 2026-05-04 15:39 | 40.09617 | 116.59384 | 310 ft | 148 kts | 172° |
| 2026-05-04 15:40 | 40.08614 | 116.59535 | 142 ft | 140 kts | 172° |
| 2026-05-04 15:40 | 40.07746 | 116.59671 | 124 ft | 109 kts | 173° |
| 2026-05-04 15:40 | 40.07139 | 116.59769 | 127 ft | 63 kts | 174° |
| 2026-05-04 15:40 | 40.06819 | 116.59815 | 126 ft | 41 kts | 175° |
| 2026-05-04 15:41 | 40.06721 | 116.59812 | 151 ft | 28 kts | 90° |